createdAt,value
2022-12-09T00:00:13.823Z,7.33
2022-12-09T00:02:40.861Z,7.33
2022-12-09T00:05:07.997Z,7.44
2022-12-09T00:07:36.552Z,7.62
2022-12-09T00:10:05.028Z,7.53
2022-12-09T00:12:31.857Z,7.50
2022-12-09T00:14:58.393Z,7.70
2022-12-09T00:17:25.177Z,7.09
2022-12-09T00:19:52.172Z,7.13
2022-12-09T00:22:18.722Z,6.59
2022-12-09T00:24:45.674Z,6.90
2022-12-09T00:27:12.197Z,7.27
2022-12-09T00:29:38.742Z,6.86
2022-12-09T00:32:05.657Z,6.51
2022-12-09T00:34:32.481Z,6.54
2022-12-09T00:36:59.091Z,6.69
2022-12-09T00:39:26.027Z,6.57
2022-12-09T00:41:52.924Z,6.80
2022-12-09T00:44:19.454Z,6.80
2022-12-09T00:46:46.159Z,6.83
2022-12-09T00:49:12.843Z,6.93
2022-12-09T00:51:39.642Z,6.74
2022-12-09T00:54:06.309Z,6.72
2022-12-09T00:56:33.251Z,6.58
2022-12-09T00:58:59.883Z,6.62
2022-12-09T01:01:27.619Z,6.21
2022-12-09T01:03:54.544Z,6.48
2022-12-09T01:06:22.795Z,6.52
2022-12-09T01:08:49.421Z,6.53
2022-12-09T01:11:22.121Z,6.71
2022-12-09T01:13:49.418Z,6.75
2022-12-09T01:16:21.324Z,6.93
2022-12-09T01:18:48.760Z,7.06
2022-12-09T01:21:15.458Z,6.92
2022-12-09T01:23:42.537Z,7.15
2022-12-09T01:26:09.803Z,7.16
2022-12-09T01:28:37.783Z,6.92
2022-12-09T01:31:14.083Z,6.87
2022-12-09T01:33:41.967Z,6.28
2022-12-09T01:36:15.637Z,6.36
2022-12-09T01:38:42.502Z,6.18
2022-12-09T01:41:09.462Z,6.35
2022-12-09T01:43:37.766Z,6.44
2022-12-09T01:46:04.926Z,6.40
2022-12-09T01:48:34.364Z,6.30
2022-12-09T01:51:04.662Z,6.52
2022-12-09T01:53:35.585Z,6.41
2022-12-09T01:56:06.591Z,5.95
2022-12-09T01:58:33.219Z,6.29
2022-12-09T02:00:59.974Z,6.67
2022-12-09T02:03:27.001Z,6.57
2022-12-09T02:05:54.216Z,6.61
2022-12-09T02:08:21.239Z,6.78
2022-12-09T02:11:05.550Z,6.80
2022-12-09T02:13:45.556Z,6.67
2022-12-09T02:16:16.415Z,6.71
2022-12-09T02:19:22.801Z,6.73
2022-12-09T02:21:57.616Z,6.96
2022-12-09T02:24:50.478Z,6.69
2022-12-09T02:27:20.658Z,6.80
2022-12-09T02:30:08.752Z,6.79
2022-12-09T02:32:53.837Z,6.80
2022-12-09T02:35:25.219Z,6.58
2022-12-09T02:37:57.112Z,6.84
2022-12-09T02:40:31.375Z,6.83
2022-12-09T02:42:58.839Z,6.97
2022-12-09T02:45:27.049Z,7.16
2022-12-09T02:47:54.537Z,6.54
2022-12-09T02:50:26.052Z,6.80
2022-12-09T02:52:53.505Z,6.86
2022-12-09T02:55:21.222Z,7.11
2022-12-09T02:57:49.941Z,7.17
2022-12-09T03:00:17.031Z,7.18
2022-12-09T03:02:46.709Z,7.22
2022-12-09T03:05:25.625Z,7.19
2022-12-09T03:08:14.251Z,7.28
2022-12-09T03:11:10.625Z,7.40
2022-12-09T03:13:46.188Z,7.46
2022-12-09T03:16:35.792Z,7.32
2022-12-09T03:19:19.294Z,6.99
2022-12-09T03:21:50.324Z,7.03
2022-12-09T03:24:21.610Z,7.17
2022-12-09T03:26:49.120Z,7.20
2022-12-09T03:29:18.345Z,7.09
2022-12-09T03:31:46.642Z,6.99
2022-12-09T03:34:19.603Z,7.20
2022-12-09T03:36:48.589Z,7.25
2022-12-09T03:39:18.639Z,7.18
2022-12-09T03:41:48.232Z,7.32
2022-12-09T03:44:32.462Z,7.38
2022-12-09T03:47:00.179Z,7.30
2022-12-09T03:49:27.066Z,7.39
2022-12-09T03:52:05.200Z,7.56
2022-12-09T03:54:41.420Z,7.60
2022-12-09T03:57:15.483Z,7.46
2022-12-09T03:59:50.323Z,7.42
2022-12-09T04:02:17.383Z,7.66
2022-12-09T04:04:44.447Z,7.60
2022-12-09T04:07:11.496Z,7.53
2022-12-09T04:09:38.132Z,7.51
2022-12-09T04:12:05.557Z,7.67
2022-12-09T04:14:32.320Z,7.72
2022-12-09T04:16:58.914Z,7.20
2022-12-09T04:19:25.587Z,6.81
2022-12-09T04:21:52.158Z,6.45
2022-12-09T04:24:18.989Z,6.49
2022-12-09T04:26:45.822Z,6.67
2022-12-09T04:29:13.180Z,6.75
2022-12-09T04:31:39.735Z,6.73
2022-12-09T04:34:09.542Z,6.52
2022-12-09T04:36:37.260Z,6.80
2022-12-09T04:39:04.238Z,6.85
2022-12-09T04:41:31.022Z,6.35
2022-12-09T04:43:57.690Z,6.48
2022-12-09T04:46:24.663Z,6.65
2022-12-09T04:48:52.748Z,6.58
2022-12-09T04:51:19.540Z,6.75
2022-12-09T04:53:46.383Z,6.61
2022-12-09T04:56:16.532Z,6.74
2022-12-09T04:58:44.918Z,6.51
2022-12-09T05:01:18.467Z,6.20
2022-12-09T05:03:53.237Z,6.77
2022-12-09T05:06:22.115Z,6.94
2022-12-09T05:08:49.348Z,6.78
2022-12-09T05:11:17.209Z,7.03
2022-12-09T05:13:44.788Z,7.13
2022-12-09T05:16:16.338Z,7.10
2022-12-09T05:18:44.184Z,7.08
2022-12-09T05:21:15.373Z,7.27
2022-12-09T05:23:42.375Z,7.09
2022-12-09T05:26:11.927Z,6.98
2022-12-09T05:28:38.931Z,7.11
2022-12-09T05:31:13.231Z,6.81
2022-12-09T05:33:40.059Z,7.14
2022-12-09T05:36:15.705Z,7.25
2022-12-09T05:38:43.068Z,7.28
2022-12-09T05:41:10.410Z,6.97
2022-12-09T05:43:37.724Z,7.26
2022-12-09T05:46:05.671Z,6.96
2022-12-09T05:48:32.790Z,7.13
2022-12-09T05:51:01.981Z,7.07
2022-12-09T05:53:29.162Z,7.27
2022-12-09T05:55:56.506Z,7.39
2022-12-09T05:58:23.496Z,7.34
2022-12-09T06:00:50.317Z,7.29
2022-12-09T06:03:17.053Z,7.19
2022-12-09T06:05:44.241Z,7.32
2022-12-09T06:08:11.371Z,7.43
2022-12-09T06:10:41.554Z,7.14
2022-12-09T06:13:08.827Z,7.15
2022-12-09T06:15:36.007Z,6.81
2022-12-09T06:18:03.061Z,7.13
2022-12-09T06:20:29.972Z,7.39
2022-12-09T06:22:57.106Z,7.46
2022-12-09T06:25:24.028Z,7.43
2022-12-09T06:27:52.103Z,6.51
2022-12-09T06:30:19.761Z,6.99
2022-12-09T06:32:46.782Z,7.36
2022-12-09T06:35:14.083Z,7.31
2022-12-09T06:37:41.772Z,7.45
2022-12-09T06:40:09.307Z,7.60
2022-12-09T06:42:36.332Z,7.52
2022-12-09T06:45:03.920Z,7.19
2022-12-09T06:47:30.624Z,7.14
2022-12-09T06:50:02.682Z,6.89
2022-12-09T06:52:32.935Z,6.46
2022-12-09T06:54:59.946Z,6.46
2022-12-09T06:57:26.879Z,6.36
2022-12-09T06:59:53.856Z,6.79
2022-12-09T07:02:20.732Z,6.62
2022-12-09T07:04:53.188Z,6.91
2022-12-09T07:07:20.251Z,6.47
2022-12-09T07:09:47.449Z,6.61
2022-12-09T07:12:14.840Z,6.10
2022-12-09T07:14:41.397Z,6.44
2022-12-09T07:17:11.254Z,6.67
2022-12-09T07:19:38.142Z,6.66
2022-12-09T07:22:04.967Z,6.90
2022-12-09T07:24:32.205Z,6.92
2022-12-09T07:27:04.608Z,7.05
2022-12-09T07:29:35.959Z,6.95
2022-12-09T07:32:03.943Z,7.12
2022-12-09T07:34:30.859Z,6.83
2022-12-09T07:36:57.438Z,6.78
2022-12-09T07:39:25.227Z,6.88
2022-12-09T07:41:56.985Z,6.77
2022-12-09T07:44:24.822Z,6.92
2022-12-09T07:46:52.152Z,6.61
2022-12-09T07:49:19.274Z,6.43
2022-12-09T07:51:45.992Z,6.66
2022-12-09T07:54:14.575Z,6.87
2022-12-09T07:56:41.513Z,7.07
2022-12-09T07:59:09.075Z,7.23
2022-12-09T08:01:36.405Z,7.26
2022-12-09T08:04:05.471Z,7.26
2022-12-09T08:06:33.167Z,7.43
2022-12-09T08:09:01.852Z,7.48
2022-12-09T08:11:30.352Z,7.20
2022-12-09T08:13:58.938Z,7.31
2022-12-09T08:16:26.670Z,6.89
2022-12-09T08:18:54.608Z,6.81
2022-12-09T08:21:24.223Z,6.89
2022-12-09T08:23:52.214Z,7.12
2022-12-09T08:26:22.285Z,7.21
2022-12-09T08:28:49.675Z,6.57
2022-12-09T08:31:21.149Z,7.05
2022-12-09T08:33:49.029Z,7.23
2022-12-09T08:36:20.625Z,7.24
2022-12-09T08:38:48.111Z,7.44
2022-12-09T08:41:17.593Z,7.30
2022-12-09T08:43:45.043Z,7.18
2022-12-09T08:46:12.857Z,7.23
2022-12-09T08:48:41.630Z,7.42
2022-12-09T08:51:09.985Z,7.67
2022-12-09T08:53:37.048Z,7.35
2022-12-09T08:56:15.054Z,7.70
2022-12-09T08:58:43.121Z,7.30
2022-12-09T09:01:18.158Z,7.17
2022-12-09T09:03:46.049Z,7.41
2022-12-09T09:06:14.353Z,7.83
2022-12-09T09:08:41.580Z,7.88
2022-12-09T09:11:12.734Z,8.31
2022-12-09T09:13:41.613Z,8.50
2022-12-09T09:16:11.352Z,9.16
2022-12-09T09:18:38.551Z,9.72
2022-12-09T09:21:07.661Z,10.08
2022-12-09T09:23:34.714Z,10.11
2022-12-09T09:26:01.833Z,10.07
2022-12-09T09:28:31.556Z,9.93
2022-12-09T09:31:00.823Z,10.11
2022-12-09T09:33:28.318Z,10.12
2022-12-09T09:36:05.493Z,10.33
2022-12-09T09:38:35.338Z,10.29
2022-12-09T09:41:02.064Z,10.23
2022-12-09T09:43:34.341Z,10.18
2022-12-09T09:46:01.294Z,9.87
2022-12-09T09:48:32.785Z,9.36
2022-12-09T09:51:02.411Z,9.30
2022-12-09T09:53:34.219Z,8.97
2022-12-09T09:56:43.819Z,8.75
2022-12-09T10:00:11.317Z,9.01
2022-12-09T10:03:44.918Z,9.44
2022-12-09T10:06:52.115Z,9.37
2022-12-09T10:09:22.872Z,9.49
2022-12-09T10:11:52.998Z,9.39
2022-12-09T10:14:34.194Z,9.11
2022-12-09T10:17:28.560Z,8.62
2022-12-09T10:20:03.642Z,8.46
2022-12-09T10:22:39.828Z,8.59
2022-12-09T10:25:17.976Z,9.22
2022-12-09T10:28:02.351Z,9.00
2022-12-09T10:30:36.218Z,8.64
2022-12-09T10:33:06.822Z,8.33
2022-12-09T10:35:35.072Z,8.66
2022-12-09T10:38:09.036Z,9.53
2022-12-09T10:40:49.886Z,10.68
2022-12-09T10:43:39.576Z,11.58
2022-12-09T10:46:18.577Z,15.19
2022-12-09T10:48:46.339Z,19.05
2022-12-09T10:51:19.686Z,22.12
2022-12-09T10:54:12.160Z,24.93
2022-12-09T10:57:20.826Z,26.72
2022-12-09T11:00:21.671Z,24.98
2022-12-09T11:02:55.584Z,26.52
2022-12-09T11:05:23.134Z,27.45
2022-12-09T11:07:51.699Z,28.98
2022-12-09T11:10:22.581Z,30.17
2022-12-09T11:12:52.753Z,31.25
2022-12-09T11:15:30.464Z,32.25
2022-12-09T11:18:04.312Z,32.97
2022-12-09T11:20:32.762Z,33.36
2022-12-09T11:22:59.959Z,31.47
2022-12-09T11:25:30.353Z,32.00
2022-12-09T11:28:23.838Z,31.06
2022-12-09T11:31:20.487Z,28.45
2022-12-09T11:33:48.544Z,25.23
2022-12-09T11:36:32.646Z,22.16
2022-12-09T11:39:23.340Z,19.18
2022-12-09T11:42:20.842Z,16.47
2022-12-09T11:44:56.898Z,16.44
2022-12-09T11:50:34.650Z,17.40
2022-12-09T11:53:07.030Z,15.64
2022-12-09T11:55:34.481Z,15.05
2022-12-09T11:58:06.820Z,15.13
2022-12-09T12:00:49.141Z,15.15
2022-12-09T12:03:26.081Z,16.96
2022-12-09T12:05:55.021Z,17.34
2022-12-09T12:08:30.844Z,16.91
2022-12-09T12:10:58.380Z,16.34
2022-12-09T12:13:32.164Z,16.58
2022-12-09T12:16:12.983Z,16.34
2022-12-09T12:19:07.376Z,14.27
2022-12-09T12:22:14.365Z,12.74
2022-12-09T12:24:56.337Z,11.52
2022-12-09T12:27:47.462Z,11.44
2022-12-09T12:30:20.689Z,10.27
2022-12-09T12:36:09.301Z,9.31
2022-12-09T12:38:57.686Z,7.97
2022-12-09T12:41:43.240Z,7.07
2022-12-09T12:44:43.813Z,7.50
2022-12-09T12:47:24.158Z,7.10
2022-12-09T12:49:50.773Z,7.23
2022-12-09T12:52:54.275Z,7.06
2022-12-09T12:55:21.547Z,6.45
2022-12-09T12:58:10.084Z,6.11
2022-12-09T13:01:14.398Z,7.19
2022-12-09T13:03:47.533Z,6.13
2022-12-09T13:06:16.830Z,6.27
2022-12-09T13:08:50.802Z,5.92
2022-12-09T13:11:21.808Z,5.67
2022-12-09T13:13:56.018Z,5.68
2022-12-09T13:16:35.520Z,5.24
2022-12-09T13:19:26.276Z,5.69
2022-12-09T13:21:53.065Z,5.00
2022-12-09T13:24:27.071Z,5.77
2022-12-09T13:27:03.647Z,5.42
2022-12-09T13:29:37.874Z,5.73
2022-12-09T13:32:28.453Z,5.85
2022-12-09T13:35:01.777Z,6.21
2022-12-09T13:37:34.757Z,6.03
2022-12-09T13:40:02.613Z,5.94
2022-12-09T13:42:47.779Z,6.16
2022-12-09T13:45:20.415Z,6.07
2022-12-09T13:47:47.471Z,5.53
2022-12-09T13:50:29.387Z,5.51
2022-12-09T13:52:58.763Z,5.39
2022-12-09T13:55:30.346Z,5.45
2022-12-09T13:58:30.591Z,5.75
2022-12-09T14:01:12.384Z,5.89
2022-12-09T14:03:54.646Z,5.13
2022-12-09T14:06:26.405Z,4.71
2022-12-09T14:08:57.750Z,5.37
2022-12-09T14:11:41.458Z,5.43
2022-12-09T14:14:23.323Z,5.67
2022-12-09T14:17:03.427Z,4.91
2022-12-09T14:19:48.392Z,5.69
2022-12-09T14:22:22.173Z,5.92
2022-12-09T14:24:58.601Z,6.31
2022-12-09T14:27:29.461Z,6.27
2022-12-09T14:30:23.781Z,5.89
2022-12-09T14:32:50.304Z,5.82
2022-12-09T14:35:46.928Z,5.94
2022-12-09T14:38:23.629Z,5.61
2022-12-09T14:40:50.157Z,4.94
2022-12-09T14:43:36.248Z,5.04
2022-12-09T14:46:05.231Z,4.72
2022-12-09T14:48:36.811Z,5.17
2022-12-09T14:51:17.611Z,5.54
2022-12-09T14:53:49.645Z,5.47
2022-12-09T14:56:18.237Z,5.86
2022-12-09T14:58:49.378Z,5.59
2022-12-09T15:01:18.136Z,5.81
2022-12-09T15:03:56.436Z,5.94
2022-12-09T15:06:26.812Z,5.86
2022-12-09T15:08:56.421Z,5.95
2022-12-09T15:11:29.185Z,6.02
2022-12-09T15:14:17.292Z,6.08
2022-12-09T15:16:47.702Z,5.93
2022-12-09T15:19:51.108Z,5.83
2022-12-09T15:22:06.956Z,5.91
2022-12-09T15:24:49.199Z,5.93
2022-12-09T15:27:19.134Z,5.91
2022-12-09T15:29:45.876Z,5.85
2022-12-09T15:32:28.679Z,6.10
2022-12-09T15:34:55.541Z,5.79
2022-12-09T15:37:26.296Z,6.09
2022-12-09T15:40:00.967Z,6.29
2022-12-09T15:42:29.752Z,6.25
2022-12-09T15:44:56.211Z,6.32
2022-12-09T15:47:37.090Z,6.30
2022-12-09T15:50:21.234Z,6.52
2022-12-09T15:52:58.464Z,6.57
2022-12-09T15:55:30.486Z,6.58
2022-12-09T15:57:58.772Z,6.61
2022-12-09T16:00:25.564Z,6.52
2022-12-09T16:02:52.439Z,6.32
2022-12-09T16:05:28.165Z,6.24
2022-12-09T16:08:00.005Z,6.53
2022-12-09T16:10:27.825Z,6.60
2022-12-09T16:13:10.509Z,6.34
2022-12-09T16:15:59.050Z,6.35
2022-12-09T16:18:30.158Z,6.09
2022-12-09T16:21:25.920Z,5.96
2022-12-09T16:23:55.415Z,6.03
2022-12-09T16:26:34.728Z,5.72
2022-12-09T16:29:03.808Z,5.87
2022-12-09T16:31:30.667Z,6.23
2022-12-09T16:33:57.634Z,6.27
2022-12-09T16:36:27.331Z,6.29
2022-12-09T16:39:22.601Z,6.28
2022-12-09T16:41:56.230Z,6.20
2022-12-09T16:44:35.179Z,5.85
2022-12-09T16:47:24.230Z,5.21
2022-12-09T16:49:50.784Z,5.08
2022-12-09T16:52:20.978Z,5.59
2022-12-09T16:54:48.733Z,5.38
2022-12-09T16:57:16.879Z,5.69
2022-12-09T16:59:43.915Z,5.66
2022-12-09T17:02:38.384Z,5.41
2022-12-09T17:05:06.136Z,5.72
2022-12-09T17:07:33.088Z,5.96
2022-12-09T17:09:59.590Z,5.89
2022-12-09T17:12:26.256Z,5.76
2022-12-09T17:14:52.784Z,6.41
2022-12-09T17:17:19.404Z,6.37
2022-12-09T17:19:46.165Z,6.24
2022-12-09T17:22:12.830Z,6.48
2022-12-09T17:24:39.793Z,6.35
2022-12-09T17:27:06.308Z,6.53
2022-12-09T17:29:32.781Z,6.35
2022-12-09T17:32:00.239Z,6.22
2022-12-09T17:34:27.052Z,6.59
2022-12-09T17:36:54.926Z,6.76
2022-12-09T17:39:23.987Z,6.55
2022-12-09T17:41:51.102Z,6.90
2022-12-09T17:44:17.851Z,6.96
2022-12-09T17:46:44.332Z,6.94
2022-12-09T17:49:10.873Z,6.82
2022-12-09T17:51:37.363Z,6.79
2022-12-09T17:54:04.433Z,6.87
2022-12-09T17:56:31.151Z,6.83
2022-12-09T17:59:00.853Z,6.89
2022-12-09T18:01:27.621Z,6.79
2022-12-09T18:04:02.639Z,6.35
2022-12-09T18:06:34.329Z,6.40
2022-12-09T18:09:01.977Z,6.49
2022-12-09T18:11:28.532Z,6.30
2022-12-09T18:13:55.408Z,5.82
2022-12-09T18:16:22.175Z,5.97
2022-12-09T18:18:48.919Z,5.93
2022-12-09T18:21:16.522Z,5.64
2022-12-09T18:23:43.465Z,5.47
2022-12-09T18:26:12.557Z,5.61
2022-12-09T18:28:39.448Z,5.32
2022-12-09T18:31:11.446Z,5.60
2022-12-09T18:33:38.523Z,5.64
2022-12-09T18:36:11.470Z,5.24
2022-12-09T18:38:38.661Z,4.83
2022-12-09T18:41:11.306Z,4.87
2022-12-09T18:43:40.365Z,5.09
2022-12-09T18:46:13.913Z,5.14
2022-12-09T18:48:41.011Z,5.13
2022-12-09T18:51:15.301Z,5.11
2022-12-09T18:53:41.962Z,5.11
2022-12-09T18:56:08.768Z,5.20
2022-12-09T18:59:04.305Z,5.15
2022-12-09T19:01:27.869Z,4.85
2022-12-09T19:03:56.853Z,5.02
2022-12-09T19:06:29.405Z,5.00
2022-12-09T19:08:57.934Z,5.04
2022-12-09T19:11:27.164Z,5.03
2022-12-09T19:13:54.264Z,4.81
2022-12-09T19:16:21.287Z,4.66
2022-12-09T19:18:48.157Z,4.76
2022-12-09T19:21:16.928Z,4.46
2022-12-09T19:23:44.644Z,4.43
2022-12-09T19:26:17.004Z,4.60
2022-12-09T19:28:48.465Z,4.47
2022-12-09T19:31:21.019Z,4.83
2022-12-09T19:33:47.644Z,4.60
2022-12-09T19:36:14.444Z,4.84
2022-12-09T19:38:41.494Z,5.03
2022-12-09T19:41:08.291Z,5.07
2022-12-09T19:43:34.946Z,4.93
2022-12-09T19:46:04.198Z,5.08
2022-12-09T19:48:30.686Z,5.19
2022-12-09T19:50:57.372Z,5.04
2022-12-09T19:53:23.888Z,5.30
2022-12-09T19:55:50.699Z,5.30
2022-12-09T19:58:17.396Z,5.20
2022-12-09T20:00:44.081Z,5.39
2022-12-09T20:03:10.686Z,5.31
2022-12-09T20:05:37.421Z,5.11
2022-12-09T20:08:04.263Z,5.41
2022-12-09T20:10:31.025Z,5.35
2022-12-09T20:12:58.652Z,5.38
2022-12-09T20:15:26.567Z,5.49
2022-12-09T20:17:53.060Z,5.29
2022-12-09T20:20:19.592Z,5.20
2022-12-09T20:22:46.120Z,5.40
2022-12-09T20:25:12.717Z,5.46
2022-12-09T20:27:39.555Z,5.19
2022-12-09T20:30:06.930Z,5.47
2022-12-09T20:32:33.746Z,5.55
2022-12-09T20:35:08.089Z,5.47
2022-12-09T20:37:34.990Z,5.27
2022-12-09T20:40:01.732Z,5.38
2022-12-09T20:42:28.349Z,5.38
2022-12-09T20:44:55.488Z,5.31
2022-12-09T20:47:22.030Z,5.24
2022-12-09T20:49:48.691Z,5.11
2022-12-09T20:52:15.260Z,5.14
2022-12-09T20:54:42.019Z,4.84
2022-12-09T20:57:08.586Z,4.91
2022-12-09T20:59:35.300Z,4.80
2022-12-09T21:02:01.871Z,4.77
2022-12-09T21:04:28.549Z,4.60
2022-12-09T21:06:55.237Z,4.65
2022-12-09T21:09:24.676Z,4.73
2022-12-09T21:11:51.288Z,4.63
2022-12-09T21:14:20.911Z,3.94
2022-12-09T21:16:50.327Z,3.87
2022-12-09T21:19:24.952Z,4.29
2022-12-09T21:21:52.513Z,4.44
2022-12-09T21:24:19.381Z,4.23
2022-12-09T21:26:48.743Z,4.10
2022-12-09T21:29:15.509Z,4.26
2022-12-09T21:31:42.397Z,4.06
2022-12-09T21:34:10.268Z,4.34
2022-12-09T21:36:39.391Z,4.28
2022-12-09T21:39:06.936Z,4.29
2022-12-09T21:41:34.499Z,4.28
2022-12-09T21:44:01.240Z,4.31
2022-12-09T21:46:33.561Z,3.99
2022-12-09T21:49:03.931Z,4.09
2022-12-09T21:51:32.021Z,4.13
2022-12-09T21:53:58.780Z,3.97
2022-12-09T21:56:27.764Z,4.01
2022-12-09T21:58:55.820Z,4.10
2022-12-09T22:01:25.934Z,4.10
2022-12-09T22:03:53.348Z,3.90
2022-12-09T22:06:20.467Z,4.16
2022-12-09T22:08:46.958Z,4.23
2022-12-09T22:11:14.761Z,4.01
2022-12-09T22:13:41.607Z,3.73
2022-12-09T22:16:16.814Z,3.90
2022-12-09T22:18:44.521Z,4.00
2022-12-09T22:21:24.570Z,3.91
2022-12-09T22:23:57.504Z,3.92
2022-12-09T22:26:26.009Z,3.85
2022-12-09T22:28:52.902Z,3.64
2022-12-09T22:31:22.541Z,4.02
2022-12-09T22:33:50.519Z,4.24
2022-12-09T22:36:17.657Z,4.08
2022-12-09T22:38:44.780Z,4.36
2022-12-09T22:41:16.731Z,4.47
2022-12-09T22:43:43.497Z,4.51
2022-12-09T22:46:11.349Z,4.51
2022-12-09T22:48:38.826Z,4.51
2022-12-09T22:51:11.232Z,4.46
2022-12-09T22:53:37.888Z,4.32
2022-12-09T22:56:05.108Z,4.47
2022-12-09T22:58:31.723Z,4.60
2022-12-09T23:00:58.232Z,4.79
2022-12-09T23:03:24.973Z,4.89
2022-12-09T23:05:51.737Z,4.74
2022-12-09T23:08:18.300Z,5.04
2022-12-09T23:10:44.864Z,5.00
2022-12-09T23:13:11.361Z,4.52
2022-12-09T23:15:38.464Z,4.91
2022-12-09T23:18:05.051Z,4.93
2022-12-09T23:20:32.315Z,4.95
2022-12-09T23:22:58.792Z,4.86
2022-12-09T23:25:25.484Z,4.67
2022-12-09T23:27:52.134Z,4.94
2022-12-09T23:30:18.720Z,4.72
2022-12-09T23:32:45.236Z,4.44
2022-12-09T23:35:11.723Z,4.95
2022-12-09T23:37:38.340Z,4.82
2022-12-09T23:40:05.541Z,4.66
2022-12-09T23:42:32.186Z,4.39
2022-12-09T23:44:58.656Z,4.50
2022-12-09T23:47:25.161Z,4.57
2022-12-09T23:49:52.038Z,4.65
2022-12-09T23:52:18.461Z,3.60
2022-12-09T23:54:45.182Z,3.99
2022-12-09T23:57:11.710Z,3.58
2022-12-09T23:59:38.483Z,4.39
